createdAt,value
2019-02-09T00:00:25.324Z,6.90
2019-02-09T00:02:53.788Z,6.94
2019-02-09T00:05:22.222Z,6.94
2019-02-09T00:07:50.682Z,6.97
2019-02-09T00:10:18.932Z,6.99
2019-02-09T00:12:47.173Z,6.94
2019-02-09T00:15:15.667Z,6.91
2019-02-09T00:17:43.970Z,6.80
2019-02-09T00:20:14.339Z,6.82
2019-02-09T00:22:42.802Z,6.78
2019-02-09T00:25:14.199Z,6.75
2019-02-09T00:27:42.430Z,6.68
2019-02-09T00:30:15.671Z,6.69
2019-02-09T00:32:44.130Z,6.72
2019-02-09T00:35:14.097Z,6.67
2019-02-09T00:37:42.331Z,6.62
2019-02-09T00:40:13.174Z,6.64
2019-02-09T00:42:41.406Z,6.61
2019-02-09T00:45:11.873Z,6.60
2019-02-09T00:47:40.105Z,6.58
2019-02-09T00:50:15.974Z,6.60
2019-02-09T00:52:44.206Z,6.63
2019-02-09T00:55:20.680Z,6.61
2019-02-09T00:57:48.977Z,6.59
2019-02-09T01:05:33.512Z,6.51
2019-02-09T01:08:01.810Z,6.50
2019-02-09T01:10:30.877Z,6.44
2019-02-09T01:12:59.352Z,6.35
2019-02-09T01:15:27.723Z,6.32
2019-02-09T01:17:55.957Z,6.34
2019-02-09T01:20:26.132Z,6.26
2019-02-09T01:22:55.805Z,6.27
2019-02-09T01:25:24.265Z,6.19
2019-02-09T01:27:52.573Z,6.19
2019-02-09T01:30:26.026Z,6.20
2019-02-09T01:32:54.483Z,6.16
2019-02-09T01:35:22.858Z,6.16
2019-02-09T01:37:51.735Z,5.95
2019-02-09T01:40:25.485Z,6.15
2019-02-09T01:42:54.027Z,6.14
2019-02-09T01:45:32.765Z,6.12
2019-02-09T01:48:01.015Z,6.08
2019-02-09T01:50:33.036Z,6.10
2019-02-09T01:53:01.546Z,6.03
2019-02-09T01:55:29.842Z,6.01
2019-02-09T01:57:58.521Z,6.02
2019-02-09T02:00:32.217Z,5.99
2019-02-09T02:03:00.518Z,5.93
2019-02-09T02:05:28.944Z,5.92
2019-02-09T02:07:57.225Z,5.93
2019-02-09T02:10:29.952Z,5.92
2019-02-09T02:12:58.638Z,5.92
2019-02-09T02:15:27.516Z,5.84
2019-02-09T02:17:56.032Z,5.84
2019-02-09T02:20:26.300Z,5.79
2019-02-09T02:22:54.764Z,5.79
2019-02-09T02:25:23.722Z,5.76
2019-02-09T02:27:51.991Z,5.77
2019-02-09T02:30:23.223Z,5.77
2019-02-09T02:32:51.768Z,5.75
2019-02-09T02:35:20.161Z,5.76
2019-02-09T02:37:48.391Z,5.75
2019-02-09T02:40:19.625Z,5.75
2019-02-09T02:42:47.919Z,5.78
2019-02-09T02:45:20.319Z,5.75
2019-02-09T02:47:48.848Z,5.75
2019-02-09T02:50:18.857Z,5.77
2019-02-09T02:52:47.221Z,5.72
2019-02-09T02:55:23.953Z,5.79
2019-02-09T02:57:52.657Z,5.82
2019-02-09T03:00:31.749Z,5.79
2019-02-09T03:02:52.955Z,5.81
2019-02-09T03:05:23.055Z,5.82
2019-02-09T03:07:51.351Z,5.84
2019-02-09T03:10:19.596Z,5.85
2019-02-09T03:12:47.819Z,5.88
2019-02-09T03:15:18.302Z,5.92
2019-02-09T03:17:46.535Z,5.90
2019-02-09T03:20:17.110Z,5.92
2019-02-09T03:22:45.339Z,5.89
2019-02-09T03:25:16.376Z,5.91
2019-02-09T03:27:44.836Z,5.90
2019-02-09T03:30:16.243Z,5.89
2019-02-09T03:32:44.477Z,5.90
2019-02-09T03:35:13.950Z,5.89
2019-02-09T03:37:42.317Z,5.89
2019-02-09T03:40:13.663Z,5.89
2019-02-09T03:42:41.892Z,5.89
2019-02-09T03:45:21.660Z,5.89
2019-02-09T03:47:49.890Z,5.89
2019-02-09T03:50:21.264Z,5.90
2019-02-09T03:52:49.564Z,5.88
2019-02-09T03:55:17.793Z,5.88
2019-02-09T03:57:46.105Z,5.90
2019-02-09T04:00:19.500Z,5.91
2019-02-09T04:02:48.085Z,5.95
2019-02-09T04:05:16.311Z,5.98
2019-02-09T04:07:44.816Z,5.97
2019-02-09T04:10:23.306Z,6.00
2019-02-09T04:12:51.602Z,6.05
2019-02-09T04:15:25.866Z,6.09
2019-02-09T04:17:54.569Z,6.13
2019-02-09T04:20:24.219Z,6.16
2019-02-09T04:22:52.543Z,6.21
2019-02-09T04:25:21.693Z,6.22
2019-02-09T04:27:49.995Z,6.25
2019-02-09T04:30:25.663Z,6.25
2019-02-09T04:32:53.959Z,6.24
2019-02-09T04:35:22.462Z,6.26
2019-02-09T04:37:50.703Z,6.30
2019-02-09T04:40:21.836Z,6.30
2019-02-09T04:42:50.080Z,6.32
2019-02-09T04:45:18.881Z,6.29
2019-02-09T04:47:47.195Z,6.29
2019-02-09T04:50:16.688Z,6.27
2019-02-09T04:52:44.934Z,6.24
2019-02-09T04:55:18.262Z,6.20
2019-02-09T04:57:46.450Z,6.19
2019-02-09T05:00:17.586Z,6.17
2019-02-09T05:02:45.892Z,6.15
2019-02-09T05:05:14.268Z,6.15
2019-02-09T05:07:42.502Z,6.13
2019-02-09T05:10:13.567Z,6.11
2019-02-09T05:12:41.806Z,6.11
2019-02-09T05:15:13.172Z,6.12
2019-02-09T05:17:41.423Z,6.08
2019-02-09T05:20:14.904Z,6.08
2019-02-09T05:22:43.424Z,6.09
2019-02-09T05:25:13.390Z,6.10
2019-02-09T05:27:41.704Z,6.12
2019-02-09T05:30:18.174Z,6.11
2019-02-09T05:32:46.633Z,6.09
2019-02-09T05:35:15.190Z,6.12
2019-02-09T05:37:43.692Z,6.10
2019-02-09T05:40:16.939Z,6.12
2019-02-09T05:42:45.164Z,6.14
2019-02-09T05:45:21.309Z,6.13
2019-02-09T05:47:49.611Z,6.17
2019-02-09T05:50:18.984Z,6.21
2019-02-09T05:52:47.713Z,6.24
2019-02-09T05:55:16.885Z,6.26
2019-02-09T05:57:45.183Z,6.27
2019-02-09T06:00:20.974Z,6.29
2019-02-09T06:02:49.206Z,6.32
2019-02-09T06:05:17.437Z,6.30
2019-02-09T06:07:45.668Z,6.33
2019-02-09T06:10:16.523Z,6.31
2019-02-09T06:12:44.755Z,6.29
2019-02-09T06:15:18.433Z,6.30
2019-02-09T06:17:46.666Z,6.29
2019-02-09T06:20:18.213Z,6.26
2019-02-09T06:22:46.448Z,6.24
2019-02-09T06:25:14.759Z,6.26
2019-02-09T06:27:42.984Z,6.30
2019-02-09T06:30:17.258Z,6.31
2019-02-09T06:32:45.582Z,6.33
2019-02-09T06:35:14.049Z,6.38
2019-02-09T06:37:42.279Z,6.39
2019-02-09T06:40:18.002Z,6.41
2019-02-09T06:42:46.236Z,6.42
2019-02-09T06:45:19.996Z,6.43
2019-02-09T06:47:48.227Z,6.45
2019-02-09T06:50:28.270Z,6.45
2019-02-09T06:52:56.496Z,6.47
2019-02-09T06:55:24.739Z,6.49
2019-02-09T06:57:52.969Z,6.48
2019-02-09T07:00:21.875Z,6.48
2019-02-09T07:02:50.481Z,6.48
2019-02-09T07:05:21.581Z,6.50
2019-02-09T07:07:49.985Z,6.51
2019-02-09T07:10:20.931Z,6.51
2019-02-09T07:12:49.169Z,6.55
2019-02-09T07:15:26.232Z,6.58
2019-02-09T07:17:54.640Z,6.60
2019-02-09T07:20:23.170Z,6.61
2019-02-09T07:22:51.406Z,6.64
2019-02-09T07:25:19.710Z,6.66
2019-02-09T07:27:48.011Z,6.70
2019-02-09T07:30:33.487Z,6.73
2019-02-09T07:33:01.859Z,6.79
2019-02-09T07:35:30.097Z,6.80
2019-02-09T07:37:58.402Z,6.79
2019-02-09T07:40:27.080Z,6.77
2019-02-09T07:42:55.576Z,6.80
2019-02-09T07:45:26.812Z,6.81
2019-02-09T07:47:55.129Z,6.78
2019-02-09T07:50:27.704Z,6.77
2019-02-09T07:52:56.003Z,6.76
2019-02-09T07:55:24.515Z,6.81
2019-02-09T07:57:52.746Z,6.82
2019-02-09T08:00:31.288Z,6.84
2019-02-09T08:02:59.753Z,6.89
2019-02-09T08:05:29.735Z,6.93
2019-02-09T08:07:58.337Z,6.96
2019-02-09T08:10:29.312Z,6.97
2019-02-09T08:12:58.018Z,6.98
2019-02-09T08:15:28.392Z,6.97
2019-02-09T08:17:56.703Z,6.96
2019-02-09T08:20:26.865Z,6.94
2019-02-09T08:22:56.243Z,6.92
2019-02-09T08:25:26.412Z,6.93
2019-02-09T08:27:55.414Z,6.91
2019-02-09T08:30:29.134Z,6.94
2019-02-09T08:32:57.672Z,6.96
2019-02-09T08:35:25.907Z,6.94
2019-02-09T08:37:54.441Z,6.90
2019-02-09T08:40:22.673Z,6.93
2019-02-09T08:43:13.050Z,6.85
2019-02-09T08:46:03.204Z,6.86
2019-02-09T08:48:59.840Z,6.82
2019-02-09T08:51:29.654Z,6.77
2019-02-09T08:54:04.015Z,6.75
2019-02-09T08:56:46.069Z,6.79
2019-02-09T08:59:30.116Z,6.81
2019-02-09T09:02:09.448Z,6.80
2019-02-09T09:04:44.983Z,6.81
2019-02-09T09:07:25.558Z,6.81
2019-02-09T09:09:58.750Z,6.84
2019-02-09T09:12:37.964Z,6.91
2019-02-09T09:15:16.497Z,6.96
2019-02-09T09:18:05.870Z,7.09
2019-02-09T09:20:52.471Z,7.26
2019-02-09T09:23:35.389Z,7.42
2019-02-09T09:26:16.919Z,7.55
2019-02-09T09:29:00.518Z,7.64
2019-02-09T09:31:38.104Z,7.71
2019-02-09T09:34:15.896Z,7.73
2019-02-09T09:36:58.309Z,7.78
2019-02-09T09:40:02.042Z,7.79
2019-02-09T09:42:17.840Z,7.87
2019-02-09T09:44:57.363Z,7.94
2019-02-09T09:47:45.411Z,7.98
2019-02-09T09:50:20.350Z,8.07
2019-02-09T09:52:52.340Z,8.15
2019-02-09T09:55:48.332Z,8.18
2019-02-09T09:58:12.325Z,8.28
2019-02-09T10:00:55.804Z,8.31
2019-02-09T10:03:29.097Z,8.33
2019-02-09T10:06:06.300Z,8.40
2019-02-09T10:08:46.026Z,8.39
2019-02-09T10:11:17.959Z,8.37
2019-02-09T10:14:08.448Z,8.39
2019-02-09T10:16:44.746Z,8.37
2019-02-09T10:19:38.008Z,8.40
2019-02-09T10:22:15.192Z,8.41
2019-02-09T10:24:44.900Z,8.44
2019-02-09T10:27:23.978Z,8.46
2019-02-09T10:30:00.758Z,8.51
2019-02-09T10:32:44.146Z,8.59
2019-02-09T10:35:16.713Z,8.67
2019-02-09T10:37:53.223Z,8.72
2019-02-09T10:40:39.198Z,8.80
2019-02-09T10:43:22.526Z,8.91
2019-02-09T10:46:04.181Z,9.02
2019-02-09T10:48:46.082Z,9.10
2019-02-09T10:51:20.545Z,9.17
2019-02-09T10:54:03.053Z,9.28
2019-02-09T10:56:36.559Z,9.37
2019-02-09T10:59:07.497Z,9.47
2019-02-09T11:01:50.076Z,9.57
2019-02-09T11:04:28.083Z,9.65
2019-02-09T11:07:08.092Z,9.72
2019-02-09T11:09:40.098Z,9.80
2019-02-09T11:12:15.619Z,9.88
2019-02-09T11:14:54.709Z,9.86
2019-02-09T11:17:26.384Z,9.91
2019-02-09T11:19:57.406Z,9.89
2019-02-09T11:22:35.312Z,9.85
2019-02-09T11:25:36.606Z,9.79
2019-02-09T11:28:17.765Z,9.78
2019-02-09T11:31:01.102Z,9.79
2019-02-09T11:33:37.355Z,9.82
2019-02-09T11:36:20.473Z,9.82
2019-02-09T11:39:07.401Z,9.81
2019-02-09T11:41:53.212Z,9.84
2019-02-09T11:44:17.563Z,9.80
2019-02-09T11:46:53.320Z,9.81
2019-02-09T11:49:27.242Z,9.80
2019-02-09T11:52:07.807Z,9.84
2019-02-09T11:54:44.975Z,9.84
2019-02-09T11:57:27.793Z,9.88
2019-02-09T12:00:07.639Z,9.96
2019-02-09T12:02:52.198Z,9.95
2019-02-09T12:05:29.780Z,10.06
2019-02-09T12:08:06.359Z,10.04
2019-02-09T12:10:42.417Z,10.14
2019-02-09T12:13:16.382Z,10.17
2019-02-09T12:15:54.534Z,10.25
2019-02-09T12:18:35.261Z,10.26
2019-02-09T12:21:15.006Z,10.32
2019-02-09T12:23:49.982Z,10.33
2019-02-09T12:26:23.657Z,10.35
2019-02-09T12:28:58.901Z,10.39
2019-02-09T12:31:37.209Z,10.40
2019-02-09T12:34:11.837Z,10.37
2019-02-09T12:36:50.676Z,10.35
2019-02-09T12:39:22.740Z,10.34
2019-02-09T12:41:54.844Z,10.34
2019-02-09T12:44:27.343Z,10.34
2019-02-09T12:47:01.906Z,10.36
2019-02-09T12:49:38.319Z,10.33
2019-02-09T12:52:14.834Z,10.36
2019-02-09T12:54:49.464Z,10.38
2019-02-09T12:57:20.220Z,10.41
2019-02-09T13:00:03.961Z,10.43
2019-02-09T13:02:32.156Z,10.45
2019-02-09T13:05:00.395Z,10.59
2019-02-09T13:07:28.874Z,10.63
2019-02-09T13:09:57.105Z,10.66
2019-02-09T13:12:25.344Z,10.70
2019-02-09T13:14:53.593Z,10.63
2019-02-09T13:17:22.070Z,10.65
2019-02-09T13:19:50.772Z,10.63
2019-02-09T13:22:19.166Z,10.54
2019-02-09T13:24:47.416Z,10.52
2019-02-09T13:27:15.646Z,10.51
2019-02-09T13:29:44.118Z,10.50
2019-02-09T13:32:12.380Z,10.51
2019-02-09T13:34:40.619Z,10.49
2019-02-09T13:37:08.853Z,10.46
2019-02-09T13:39:37.099Z,10.57
2019-02-09T13:42:05.574Z,10.54
2019-02-09T13:44:34.054Z,10.55
2019-02-09T13:47:02.283Z,10.60
2019-02-09T13:49:30.760Z,10.55
2019-02-09T13:51:58.996Z,10.63
2019-02-09T13:54:27.234Z,10.62
2019-02-09T13:56:55.471Z,10.59
2019-02-09T13:59:23.717Z,10.64
2019-02-09T14:01:51.956Z,10.65
2019-02-09T14:04:20.202Z,10.64
2019-02-09T14:06:48.667Z,10.64
2019-02-09T14:09:17.145Z,10.72
2019-02-09T14:11:45.378Z,10.72
2019-02-09T14:14:13.618Z,10.76
2019-02-09T14:16:42.082Z,10.76
2019-02-09T14:19:10.324Z,10.69
2019-02-09T14:21:38.626Z,10.66
2019-02-09T14:24:06.945Z,10.66
2019-02-09T14:26:35.180Z,10.62
2019-02-09T14:29:03.665Z,10.53
2019-02-09T14:31:31.897Z,10.54
2019-02-09T14:34:00.136Z,10.56
2019-02-09T14:36:28.375Z,10.51
2019-02-09T14:38:56.611Z,10.48
2019-02-09T14:41:25.284Z,10.46
2019-02-09T14:43:53.792Z,10.41
2019-02-09T14:46:22.041Z,10.39
2019-02-09T14:48:50.284Z,10.35
2019-02-09T14:51:18.523Z,10.30
2019-02-09T14:53:46.754Z,10.28
2019-02-09T14:56:14.997Z,10.25
2019-02-09T14:58:43.234Z,10.18
2019-02-09T15:01:11.478Z,10.14
2019-02-09T15:03:39.714Z,10.09
2019-02-09T15:06:07.959Z,10.06
2019-02-09T15:08:37.369Z,10.05
2019-02-09T15:11:05.916Z,10.00
2019-02-09T15:13:34.382Z,10.00
2019-02-09T15:16:17.594Z,9.97
2019-02-09T15:18:45.829Z,9.97
2019-02-09T15:21:15.570Z,9.95
2019-02-09T15:23:43.807Z,9.91
2019-02-09T15:26:12.703Z,9.92
2019-02-09T15:28:40.959Z,9.86
2019-02-09T15:31:09.424Z,9.84
2019-02-09T15:33:37.888Z,9.83
2019-02-09T15:36:06.134Z,9.78
2019-02-09T15:38:34.360Z,9.62
2019-02-09T15:41:02.607Z,9.47
2019-02-09T15:43:30.834Z,9.27
2019-02-09T15:45:59.308Z,9.17
2019-02-09T15:48:27.541Z,9.06
2019-02-09T15:50:56.015Z,8.95
2019-02-09T15:53:24.469Z,8.90
2019-02-09T15:55:52.703Z,8.84
2019-02-09T15:58:20.936Z,8.80
2019-02-09T16:00:49.178Z,8.78
2019-02-09T16:03:17.476Z,8.74
2019-02-09T16:05:46.006Z,8.71
2019-02-09T16:08:14.236Z,8.68
2019-02-09T16:10:42.480Z,8.67
2019-02-09T16:13:10.716Z,8.67
2019-02-09T16:15:38.949Z,8.68
2019-02-09T16:18:07.476Z,8.66
2019-02-09T16:20:36.453Z,8.67
2019-02-09T16:23:05.319Z,8.67
2019-02-09T16:25:33.616Z,8.65
2019-02-09T16:28:01.860Z,8.66
2019-02-09T16:30:30.996Z,8.67
2019-02-09T16:32:59.465Z,8.64
2019-02-09T16:35:31.935Z,8.59
2019-02-09T16:38:00.467Z,8.55
2019-02-09T16:40:33.215Z,8.53
2019-02-09T16:43:01.459Z,8.50
2019-02-09T16:45:35.216Z,8.45
2019-02-09T16:48:04.698Z,8.44
2019-02-09T16:50:32.930Z,8.40
2019-02-09T16:53:01.207Z,8.34
2019-02-09T16:55:29.434Z,8.30
2019-02-09T16:57:57.974Z,8.31
2019-02-09T17:00:34.941Z,8.32
2019-02-09T17:03:03.839Z,8.32
2019-02-09T17:05:32.312Z,8.34
2019-02-09T17:08:00.549Z,8.34
2019-02-09T17:10:29.148Z,8.32
2019-02-09T17:12:57.622Z,8.28
2019-02-09T17:15:27.093Z,8.21
2019-02-09T17:17:55.566Z,8.21
2019-02-09T17:20:23.861Z,8.18
2019-02-09T17:22:52.110Z,8.17
2019-02-09T17:25:24.496Z,8.13
2019-02-09T17:27:53.196Z,8.13
2019-02-09T17:30:26.956Z,8.11
2019-02-09T17:32:55.458Z,8.09
2019-02-09T17:35:24.059Z,8.04
2019-02-09T17:37:52.370Z,8.01
2019-02-09T17:40:29.210Z,7.98
2019-02-09T17:42:57.685Z,7.94
2019-02-09T17:45:28.734Z,7.90
2019-02-09T17:47:56.970Z,7.89
2019-02-09T17:50:25.286Z,7.84
2019-02-09T17:52:53.470Z,7.78
2019-02-09T17:55:21.984Z,7.73
2019-02-09T17:57:50.221Z,7.74
2019-02-09T18:00:28.530Z,7.72
2019-02-09T18:02:56.771Z,7.69
2019-02-09T18:05:25.239Z,7.67
2019-02-09T18:07:53.474Z,7.66
2019-02-09T18:10:21.782Z,7.65
2019-02-09T18:12:50.244Z,7.64
2019-02-09T18:15:19.617Z,7.58
2019-02-09T18:17:47.855Z,7.56
2019-02-09T18:20:17.131Z,7.55
2019-02-09T18:22:45.632Z,7.50
2019-02-09T18:25:21.870Z,7.44
2019-02-09T18:27:50.588Z,7.36
2019-02-09T18:30:23.745Z,7.28
2019-02-09T18:32:52.046Z,7.22
2019-02-09T18:35:20.287Z,7.13
2019-02-09T18:37:48.592Z,7.07
2019-02-09T18:40:24.900Z,7.02
2019-02-09T18:42:53.171Z,7.03
2019-02-09T18:45:24.583Z,7.06
2019-02-09T18:47:52.885Z,7.12
2019-02-09T18:50:23.767Z,7.20
2019-02-09T18:52:52.402Z,7.28
2019-02-09T18:55:21.986Z,7.39
2019-02-09T18:57:50.218Z,7.48
2019-02-09T19:00:24.154Z,7.58
2019-02-09T19:02:52.457Z,7.64
2019-02-09T19:05:21.239Z,7.71
2019-02-09T19:07:49.471Z,7.77
2019-02-09T19:10:20.516Z,7.81
2019-02-09T19:12:48.752Z,7.84
2019-02-09T19:15:21.288Z,7.89
2019-02-09T19:17:49.520Z,7.91
2019-02-09T19:20:28.924Z,7.96
2019-02-09T19:22:57.328Z,7.96
2019-02-09T19:25:25.640Z,8.00
2019-02-09T19:27:53.939Z,8.00
2019-02-09T19:30:26.451Z,8.04
2019-02-09T19:32:55.015Z,8.05
2019-02-09T19:35:23.260Z,8.07
2019-02-09T19:37:52.201Z,8.05
2019-02-09T19:40:24.392Z,8.05
2019-02-09T19:42:52.628Z,8.05
2019-02-09T19:45:29.543Z,8.07
2019-02-09T19:47:58.086Z,8.05
2019-02-09T19:50:26.326Z,8.04
2019-02-09T19:52:54.563Z,8.05
2019-02-09T19:55:24.936Z,8.01
2019-02-09T19:57:53.848Z,8.01
2019-02-09T20:00:36.415Z,7.99
2019-02-09T20:03:05.883Z,7.95
2019-02-09T20:05:34.123Z,7.96
2019-02-09T20:08:02.362Z,7.95
2019-02-09T20:10:33.839Z,7.96
2019-02-09T20:13:02.246Z,7.95
2019-02-09T20:15:30.491Z,7.97
2019-02-09T20:17:58.720Z,7.98
2019-02-09T20:20:27.025Z,7.99
2019-02-09T20:22:55.486Z,7.99
2019-02-09T20:25:27.784Z,8.00
2019-02-09T20:27:56.020Z,7.99
2019-02-09T20:30:26.753Z,7.99
2019-02-09T20:32:54.998Z,7.98
2019-02-09T20:35:27.643Z,7.94
2019-02-09T20:37:54.597Z,7.86
2019-02-09T20:40:35.007Z,7.76
2019-02-09T20:43:04.437Z,7.70
2019-02-09T20:45:32.689Z,7.60
2019-02-09T20:48:00.998Z,7.61
2019-02-09T20:50:29.227Z,7.56
2019-02-09T20:52:57.467Z,7.52
2019-02-09T20:55:25.703Z,7.41
2019-02-09T20:57:54.188Z,7.38
2019-02-09T21:00:27.309Z,7.34
2019-02-09T21:02:55.581Z,7.29
2019-02-09T21:05:23.781Z,7.23
2019-02-09T21:07:52.223Z,7.11
2019-02-09T21:10:22.739Z,7.09
2019-02-09T21:12:51.252Z,7.05
2019-02-09T21:15:24.665Z,7.02
2019-02-09T21:17:52.973Z,6.98
2019-02-09T21:20:21.667Z,6.95
2019-02-09T21:22:49.912Z,6.90
2019-02-09T21:25:32.597Z,6.86
2019-02-09T21:28:01.147Z,6.82
2019-02-09T21:30:29.623Z,6.78
2019-02-09T21:32:58.136Z,6.75
2019-02-09T21:35:26.362Z,6.73
2019-02-09T21:37:54.625Z,6.69
2019-02-09T21:40:24.885Z,6.65
2019-02-09T21:42:53.198Z,6.57
2019-02-09T21:45:23.171Z,6.52
2019-02-09T21:47:51.677Z,6.49
2019-02-09T21:50:28.922Z,6.44
2019-02-09T21:52:57.164Z,6.43
2019-02-09T21:55:25.734Z,6.38
2019-02-09T21:57:53.978Z,6.38
2019-02-09T22:00:39.160Z,6.40
2019-02-09T22:03:08.535Z,6.42
2019-02-09T22:05:37.069Z,6.47
2019-02-09T22:08:06.746Z,6.49
2019-02-09T22:10:34.974Z,6.55
2019-02-09T22:13:03.208Z,6.54
2019-02-09T22:15:38.884Z,6.54
2019-02-09T22:18:03.939Z,6.57
2019-02-09T22:20:32.176Z,6.59
2019-02-09T22:23:00.650Z,6.63
2019-02-09T22:25:29.848Z,6.70
2019-02-09T22:27:58.381Z,6.76
2019-02-09T22:30:33.142Z,6.82
2019-02-09T22:33:01.700Z,6.90
2019-02-09T22:35:30.104Z,6.97
2019-02-09T22:37:58.776Z,7.02
2019-02-09T22:40:33.009Z,7.10
2019-02-09T22:43:01.241Z,7.14
2019-02-09T22:45:30.253Z,7.20
2019-02-09T22:47:58.666Z,7.25
2019-02-09T22:50:35.468Z,7.29
2019-02-09T22:53:03.841Z,7.33
2019-02-09T22:55:32.082Z,7.38
2019-02-09T22:58:00.549Z,7.41
2019-02-09T23:00:51.523Z,7.44
2019-02-09T23:03:22.090Z,7.47
2019-02-09T23:06:12.741Z,7.50
2019-02-09T23:08:43.582Z,7.51
2019-02-09T23:11:11.858Z,7.55
2019-02-09T23:13:40.050Z,7.55
2019-02-09T23:16:08.287Z,7.56
2019-02-09T23:18:36.747Z,7.56
2019-02-09T23:21:04.993Z,7.55
2019-02-09T23:23:33.232Z,7.56
2019-02-09T23:26:01.472Z,7.56
2019-02-09T23:28:29.701Z,7.55
2019-02-09T23:30:58.175Z,7.52
2019-02-09T23:33:26.405Z,7.50
2019-02-09T23:35:54.642Z,7.48
2019-02-09T23:38:22.909Z,7.43
2019-02-09T23:40:51.110Z,7.44
2019-02-09T23:43:19.347Z,7.42
2019-02-09T23:45:47.591Z,7.40
2019-02-09T23:48:15.822Z,7.41
2019-02-09T23:50:44.068Z,7.38
2019-02-09T23:53:12.298Z,7.36
2019-02-09T23:55:40.542Z,7.43
2019-02-09T23:58:09.000Z,7.34
